Time;durP1;ratioP1;P1;durP2;ratioP2;P2;SDS_P1;SDS_P2;PMS_P1;PMS_P2;Temp;Humidity;BMP_temperature;BMP_pressure;BME280_temperature;BME280_humidity;BME280_pressure;Samples;Min_cycle;Max_cycle;Signal;HPM_P1;HPM_P2
2022/01/15 00:00:57;;;;;;;;;;;;;;;12.20;55.67;103404.25;5063925;28;19924;-81
2022/01/15 00:03:22;;;;;;;;;;;;;;;12.38;55.32;103405.81;5064865;28;19916;-80
2022/01/15 00:05:47;;;;;;;;;;;;;;;10.78;59.98;103413.81;5063711;28;19923;-81
2022/01/15 00:08:13;;;;;;;;;;;;;;;12.05;56.45;103399.91;5063273;28;19916;-81
2022/01/15 00:10:38;;;;;;;;;;;;;;;12.22;56.61;103397.84;5062185;28;19916;-81
2022/01/15 00:13:07;;;;;;;;;;;;;;;12.57;54.87;103395.56;5061168;28;19915;-81
2022/01/15 00:15:37;;;;;;;;;;;;;;;12.11;56.86;103397.13;5062555;28;20433;-80
2022/01/15 00:18:10;;;;;;;;;;;;;;;12.35;54.96;103389.53;5062060;28;19920;-81
2022/01/15 00:20:35;;;;;;;;;;;;;;;12.18;55.81;103390.69;5060544;28;20007;-81
2022/01/15 00:23:00;;;;;;;;;;;;;;;12.11;55.88;103393.47;5060986;28;19940;-80
2022/01/15 00:25:27;;;;;;;;;;;;;;;11.69;58.01;103386.72;5061002;28;19921;-80
2022/01/15 00:27:53;;;;;;;;;;;;;;;10.99;60.83;103389.25;5078725;28;20365;-81
2022/01/15 00:30:19;;;;;;;;;;;;;;;11.65;57.18;103386.78;5060938;28;19942;-81
2022/01/15 00:32:44;;;;;;;;;;;;;;;11.12;58.12;103391.84;5062396;28;19920;-80
2022/01/15 00:35:12;;;;;;;;;;;;;;;10.91;60.73;103387.50;5061195;28;19923;-80
2022/01/15 00:37:40;;;;;;;;;;;;;;;10.95;60.77;103379.34;5078447;28;19962;-80
2022/01/15 00:40:07;;;;;;;;;;;;;;;11.12;60.10;103376.47;5077991;28;19916;-80
2022/01/15 00:42:34;;;;;;;;;;;;;;;11.12;60.11;103370.16;5059248;28;19966;-80
2022/01/15 00:45:01;;;;;;;;;;;;;;;10.39;62.07;103369.84;5055465;28;19999;-81
2022/01/15 00:47:31;;;;;;;;;;;;;;;10.90;61.58;103362.25;5059873;28;20473;-81
2022/01/15 00:49:56;;;;;;;;;;;;;;;11.51;58.71;103360.72;5060971;28;19920;-81
2022/01/15 00:52:22;;;;;;;;;;;;;;;11.40;59.15;103357.25;5061754;28;19917;-81
2022/01/15 00:54:47;;;;;;;;;;;;;;;10.01;63.14;103360.06;5079274;28;19923;-81
2022/01/15 00:57:12;;;;;;;;;;;;;;;10.78;61.86;103354.22;5061414;28;19962;-80
2022/01/15 00:59:37;;;;;;;;;;;;;;;11.03;60.58;103357.59;5061639;28;20003;-80
2022/01/15 01:02:03;;;;;;;;;;;;;;;11.11;58.57;103353.03;5061756;28;20286;-80
2022/01/15 01:04:28;;;;;;;;;;;;;;;11.81;57.83;103347.72;5079186;28;20298;-81
2022/01/15 01:06:53;;;;;;;;;;;;;;;11.35;59.13;103343.75;5060268;28;19924;-80
2022/01/15 01:09:19;;;;;;;;;;;;;;;12.10;57.35;103343.75;5060951;28;19924;-81
2022/01/15 01:11:51;;;;;;;;;;;;;;;11.15;59.38;103345.75;5060231;28;19925;-81
2022/01/15 01:24:56;;;;;;;;;;;;;;;9.80;64.12;103325.91;5080264;28;20026;-80
2022/01/15 01:27:41;;;;;;;;;;;;;;;10.25;63.41;103329.28;5063922;28;19917;-80
2022/01/15 01:30:13;;;;;;;;;;;;;;;10.02;64.74;103327.63;5080076;28;19920;-80
2022/01/15 01:35:10;;;;;;;;;;;;;;;10.54;61.81;103321.00;5079476;28;20011;-81
2022/01/15 01:37:40;;;;;;;;;;;;;;;11.42;58.52;103316.56;5062352;28;19924;-80
2022/01/15 01:42:44;;;;;;;;;;;;;;;12.17;56.56;103309.31;5079429;28;19985;-80
2022/01/15 01:45:11;;;;;;;;;;;;;;;10.55;63.18;103316.50;5079311;28;19920;-80
2022/01/15 01:47:41;;;;;;;;;;;;;;;10.81;61.19;103314.47;5061490;28;19928;-81
2022/01/15 01:50:26;;;;;;;;;;;;;;;11.09;61.63;103302.47;5061453;28;20420;-80
2022/01/15 01:52:56;;;;;;;;;;;;;;;11.73;57.78;103302.63;5062279;28;19917;-81
2022/01/15 01:55:22;;;;;;;;;;;;;;;11.15;60.15;103305.13;5061544;28;19916;-80
2022/01/15 01:57:48;;;;;;;;;;;;;;;11.37;58.49;103299.44;5080469;28;19917;-81
2022/01/15 02:00:14;;;;;;;;;;;;;;;11.55;57.96;103299.25;5083374;28;19934;-81
2022/01/15 02:02:40;;;;;;;;;;;;;;;10.94;61.32;103289.97;5065720;28;19917;-81
2022/01/15 02:05:05;;;;;;;;;;;;;;;11.38;58.84;103290.41;5064956;28;19924;-80
2022/01/15 02:07:30;;;;;;;;;;;;;;;10.62;61.61;103293.88;5064910;28;19916;-81
2022/01/15 02:09:57;;;;;;;;;;;;;;;10.86;60.84;103287.34;5066333;28;19928;-81
2022/01/15 02:12:22;;;;;;;;;;;;;;;11.07;60.24;103283.53;5082337;28;20428;-81
2022/01/15 02:14:48;;;;;;;;;;;;;;;11.71;57.44;103275.53;5064108;28;19966;-81
2022/01/15 02:17:16;;;;;;;;;;;;;;;11.02;59.28;103279.06;5082330;28;19916;-81
2022/01/15 02:19:57;;;;;;;;;;;;;;;11.92;56.26;103279.75;5066895;28;19923;-81
2022/01/15 02:25:07;;;;;;;;;;;;;;;10.43;61.78;103279.59;5084517;28;19978;-80
2022/01/15 02:27:33;;;;;;;;;;;;;;;9.89;64.59;103278.13;5081722;28;19916;-80
2022/01/15 02:30:00;;;;;;;;;;;;;;;10.33;63.38;103278.78;5084061;28;19916;-81
2022/01/15 02:32:25;;;;;;;;;;;;;;;9.33;65.45;103277.47;5065942;28;19917;-81
2022/01/15 02:34:50;;;;;;;;;;;;;;;10.23;64.05;103272.47;5065882;28;19986;-80
2022/01/15 02:37:15;;;;;;;;;;;;;;;10.29;62.53;103267.03;5065528;28;19920;-81
2022/01/15 02:39:41;;;;;;;;;;;;;;;9.78;63.64;103269.16;5066414;28;19920;-80
2022/01/15 02:42:06;;;;;;;;;;;;;;;10.59;59.47;103256.91;5064068;28;19929;-80
2022/01/15 02:44:37;;;;;;;;;;;;;;;9.65;62.49;103264.75;5064713;28;19947;-80
2022/01/15 02:49:28;;;;;;;;;;;;;;;11.16;58.88;103231.06;5082611;28;19901;-81
2022/01/15 02:51:53;;;;;;;;;;;;;;;11.14;58.30;103236.50;5064358;28;20011;-81
2022/01/15 02:54:18;;;;;;;;;;;;;;;10.91;58.53;103234.03;5064016;28;20007;-81
2022/01/15 02:56:44;;;;;;;;;;;;;;;10.39;58.66;103234.53;5065114;28;20374;-81
2022/01/15 02:59:15;;;;;;;;;;;;;;;10.24;61.38;103230.13;5083706;28;20358;-80
2022/01/15 03:01:40;;;;;;;;;;;;;;;10.58;61.20;103235.25;5065766;28;19916;-81
2022/01/15 03:04:05;;;;;;;;;;;;;;;10.18;62.78;103230.16;5082452;28;19916;-81
2022/01/15 03:06:31;;;;;;;;;;;;;;;10.26;60.70;103226.47;5065283;28;19992;-81
2022/01/15 03:08:56;;;;;;;;;;;;;;;10.12;61.04;103225.69;5064925;28;19917;-80
2022/01/15 03:11:22;;;;;;;;;;;;;;;10.69;59.36;103236.06;5063937;28;19938;-81
2022/01/15 03:13:48;;;;;;;;;;;;;;;10.01;62.12;103216.75;5065302;28;19978;-80
2022/01/15 03:16:15;;;;;;;;;;;;;;;8.59;68.30;103217.31;5066246;28;19980;-80
2022/01/15 03:18:40;;;;;;;;;;;;;;;9.28;65.95;103218.97;5066244;28;19916;-80
2022/01/15 03:21:06;;;;;;;;;;;;;;;8.85;66.45;103226.28;5065198;28;19974;-80
2022/01/15 03:23:31;;;;;;;;;;;;;;;8.65;70.08;103230.81;5063367;28;20359;-80
2022/01/15 03:25:56;;;;;;;;;;;;;;;9.17;67.10;103228.00;5062945;28;20015;-80
2022/01/15 03:28:21;;;;;;;;;;;;;;;8.80;67.77;103221.78;5063361;28;19941;-80
2022/01/15 03:30:47;;;;;;;;;;;;;;;8.84;67.88;103212.78;5063804;28;19916;-80
2022/01/15 03:33:12;;;;;;;;;;;;;;;8.95;68.64;103215.47;5081453;28;20006;-80
2022/01/15 03:35:38;;;;;;;;;;;;;;;9.27;68.22;103218.06;5064530;28;19916;-80
2022/01/15 03:38:04;;;;;;;;;;;;;;;9.87;64.34;103206.94;5063906;28;19952;-81
2022/01/15 03:40:29;;;;;;;;;;;;;;;9.50;65.15;103204.44;5063800;28;20404;-80
2022/01/15 03:42:55;;;;;;;;;;;;;;;9.50;65.63;103190.94;5080428;28;19963;-81
2022/01/15 03:45:20;;;;;;;;;;;;;;;9.85;63.67;103194.34;5063538;28;19924;-80
2022/01/15 03:47:46;;;;;;;;;;;;;;;8.61;67.51;103205.63;5063658;28;19920;-81
2022/01/15 03:50:11;;;;;;;;;;;;;;;10.40;63.14;103193.03;5063562;28;20030;-80
2022/01/15 03:52:37;;;;;;;;;;;;;;;10.26;62.35;103191.28;5063383;28;19924;-81
2022/01/15 03:55:03;;;;;;;;;;;;;;;10.88;59.50;103184.41;5062810;28;19916;-80
2022/01/15 03:57:28;;;;;;;;;;;;;;;10.82;58.96;103183.59;5062981;28;19916;-81
2022/01/15 03:59:54;;;;;;;;;;;;;;;10.87;60.41;103180.84;5063060;28;20401;-80
2022/01/15 04:02:19;;;;;;;;;;;;;;;10.78;59.21;103175.53;5082176;28;19916;-81
2022/01/15 04:04:44;;;;;;;;;;;;;;;10.43;61.04;103171.34;5063396;28;19916;-80
2022/01/15 04:07:09;;;;;;;;;;;;;;;11.90;55.81;103162.25;5063758;28;19975;-80
2022/01/15 04:09:35;;;;;;;;;;;;;;;9.72;61.22;103177.28;5080616;28;19951;-81
2022/01/15 04:12:02;;;;;;;;;;;;;;;10.69;59.51;103167.47;5062721;28;19916;-80
2022/01/15 04:14:27;;;;;;;;;;;;;;;10.07;61.92;103165.31;5062146;28;19983;-81
2022/01/15 04:16:53;;;;;;;;;;;;;;;9.17;64.13;103170.41;5081148;28;19924;-80
2022/01/15 04:19:18;;;;;;;;;;;;;;;9.88;64.05;103157.34;5063376;28;19943;-80
2022/01/15 04:21:43;;;;;;;;;;;;;;;9.32;65.14;103164.03;5079661;28;20012;-80
2022/01/15 04:24:08;;;;;;;;;;;;;;;9.18;65.82;103170.38;5080239;28;19931;-80
2022/01/15 04:26:33;;;;;;;;;;;;;;;8.75;67.08;103166.94;5062020;28;20289;-80
2022/01/15 04:29:06;;;;;;;;;;;;;;;9.29;65.37;103170.34;5079254;28;19962;-80
2022/01/15 04:31:46;;;;;;;;;;;;;;;9.15;66.11;103156.91;5061212;28;19917;-81
2022/01/15 04:34:11;;;;;;;;;;;;;;;8.92;67.50;103169.56;5060929;28;19957;-80
2022/01/15 04:36:36;;;;;;;;;;;;;;;9.84;63.36;103157.38;5062027;28;19948;-81
2022/01/15 04:39:02;;;;;;;;;;;;;;;10.49;61.54;103149.63;5062015;28;19916;-80
2022/01/15 04:41:27;;;;;;;;;;;;;;;9.29;64.83;103148.72;5062701;28;19917;-80
2022/01/15 04:43:52;;;;;;;;;;;;;;;9.63;63.05;103139.50;5061886;28;19966;-80
2022/01/15 04:46:17;;;;;;;;;;;;;;;9.75;62.93;103139.41;5080393;28;19962;-81
2022/01/15 04:48:44;;;;;;;;;;;;;;;10.25;59.27;103134.50;5061999;28;20206;-81
2022/01/15 04:51:10;;;;;;;;;;;;;;;10.65;59.31;103131.44;5061061;28;19917;-81
2022/01/15 04:53:35;;;;;;;;;;;;;;;11.28;56.63;103127.03;5061757;28;19988;-81
2022/01/15 04:56:00;;;;;;;;;;;;;;;10.35;59.06;103128.13;5062276;28;19920;-81
2022/01/15 04:58:27;;;;;;;;;;;;;;;9.55;63.70;103136.88;5062246;28;19923;-81
2022/01/15 05:00:53;;;;;;;;;;;;;;;9.74;62.22;103137.66;5079389;28;19916;-80
2022/01/15 05:03:18;;;;;;;;;;;;;;;9.74;63.96;103132.25;5079466;28;20007;-81
2022/01/15 05:05:43;;;;;;;;;;;;;;;9.04;66.03;103126.31;5060840;28;19967;-80
2022/01/15 05:08:10;;;;;;;;;;;;;;;9.30;63.97;103122.59;5061659;28;19917;-80
2022/01/15 05:10:36;;;;;;;;;;;;;;;9.17;64.98;103130.78;5061565;28;19917;-81
2022/01/15 05:13:02;;;;;;;;;;;;;;;8.48;67.50;103134.63;5061266;28;20428;-81
2022/01/15 05:15:27;;;;;;;;;;;;;;;8.84;66.86;103127.31;5061094;28;19917;-81
2022/01/15 05:17:53;;;;;;;;;;;;;;;8.93;66.44;103120.09;5061440;28;19927;-80
2022/01/15 05:20:20;;;;;;;;;;;;;;;8.77;65.70;103109.38;5078971;28;19922;-81
2022/01/15 05:22:46;;;;;;;;;;;;;;;8.98;64.70;103096.66;5078611;28;19920;-80
2022/01/15 05:25:17;;;;;;;;;;;;;;;8.50;67.00;103095.06;5060971;28;19927;-80
2022/01/15 05:27:42;;;;;;;;;;;;;;;9.50;63.12;103092.78;5079060;28;19917;-80
2022/01/15 05:30:08;;;;;;;;;;;;;;;9.70;61.34;103084.50;5061034;28;19917;-81
2022/01/15 05:32:33;;;;;;;;;;;;;;;9.88;59.97;103076.25;5079749;28;19921;-81
2022/01/15 05:34:59;;;;;;;;;;;;;;;10.17;58.79;103075.06;5064610;28;19916;-81
2022/01/15 05:37:24;;;;;;;;;;;;;;;9.75;60.36;103079.94;5083309;28;20370;-81
2022/01/15 05:39:52;;;;;;;;;;;;;;;9.20;62.08;103086.66;5064647;28;20042;-81
2022/01/15 05:42:17;;;;;;;;;;;;;;;8.47;65.14;103077.94;5064382;28;19947;-81
2022/01/15 05:44:42;;;;;;;;;;;;;;;9.03;63.74;103075.97;5065168;28;20370;-80
2022/01/15 05:47:08;;;;;;;;;;;;;;;9.04;64.57;103070.53;5065560;28;20019;-81
2022/01/15 05:49:33;;;;;;;;;;;;;;;8.43;66.63;103066.25;5064369;28;19938;-80
2022/01/15 05:51:58;;;;;;;;;;;;;;;8.50;66.84;103069.88;5064721;28;19924;-80
2022/01/15 05:54:25;;;;;;;;;;;;;;;8.76;64.21;103063.50;5064291;28;20290;-79
2022/01/15 05:56:50;;;;;;;;;;;;;;;9.12;64.08;103059.69;5064290;28;19931;-79
2022/01/15 05:59:15;;;;;;;;;;;;;;;8.18;66.13;103070.78;5082390;28;19978;-80
2022/01/15 06:01:41;;;;;;;;;;;;;;;9.36;64.35;103055.94;5064532;28;19923;-80
2022/01/15 06:04:06;;;;;;;;;;;;;;;8.59;65.18;103053.66;5082209;28;19920;-81
2022/01/15 06:06:31;;;;;;;;;;;;;;;9.08;62.38;103052.50;5083316;28;19917;-82
2022/01/15 06:08:56;;;;;;;;;;;;;;;8.76;64.35;103053.59;5064029;28;19921;-81
2022/01/15 06:11:23;;;;;;;;;;;;;;;9.74;61.34;103041.22;5062553;28;20381;-80
2022/01/15 06:13:48;;;;;;;;;;;;;;;9.33;62.35;103033.44;5080500;28;20459;-80
2022/01/15 06:16:14;;;;;;;;;;;;;;;8.64;63.60;103048.25;5061290;28;19992;-79
2022/01/15 06:18:39;;;;;;;;;;;;;;;8.91;64.39;103043.59;5081863;28;19986;-80
2022/01/15 06:21:05;;;;;;;;;;;;;;;8.83;65.12;103044.56;5081932;28;19912;-80
2022/01/15 06:23:30;;;;;;;;;;;;;;;8.20;67.28;103049.22;5061175;28;19924;-80
2022/01/15 06:25:55;;;;;;;;;;;;;;;8.19;68.29;103042.94;5060105;28;19924;-80
2022/01/15 06:28:21;;;;;;;;;;;;;;;9.58;63.22;103035.03;5060303;28;19923;-81
2022/01/15 06:30:46;;;;;;;;;;;;;;;9.03;63.67;103032.75;5077474;28;20362;-80
2022/01/15 06:33:11;;;;;;;;;;;;;;;8.67;64.91;103032.03;5059317;28;20359;-79
2022/01/15 06:35:37;;;;;;;;;;;;;;;8.77;62.82;103033.78;5059376;28;19924;-80
2022/01/15 06:38:02;;;;;;;;;;;;;;;9.16;62.57;103039.88;5061668;28;19917;-80
2022/01/15 06:40:27;;;;;;;;;;;;;;;8.96;63.58;103031.88;5060855;28;19939;-80
2022/01/15 06:42:53;;;;;;;;;;;;;;;9.03;63.29;103030.94;5060409;28;19999;-80
2022/01/15 06:45:18;;;;;;;;;;;;;;;8.95;62.79;103038.22;5060275;28;19923;-80
2022/01/15 06:47:43;;;;;;;;;;;;;;;8.45;66.20;103040.19;5061437;28;19916;-80
2022/01/15 06:50:09;;;;;;;;;;;;;;;9.18;65.25;103040.75;5079676;28;20012;-81
2022/01/15 06:52:35;;;;;;;;;;;;;;;8.87;65.08;103040.03;5060223;28;20365;-80
2022/01/15 06:55:00;;;;;;;;;;;;;;;8.76;64.60;103032.00;5060215;28;19920;-79
2022/01/15 06:57:26;;;;;;;;;;;;;;;9.16;63.13;103037.19;5060219;28;19917;-80
2022/01/15 06:59:52;;;;;;;;;;;;;;;8.45;64.15;103031.22;5076974;28;20370;-79
2022/01/15 07:02:17;;;;;;;;;;;;;;;8.67;64.70;103027.53;5057515;28;19923;-79
2022/01/15 07:04:42;;;;;;;;;;;;;;;7.72;69.48;103036.72;5057910;28;20366;-79
2022/01/15 07:07:08;;;;;;;;;;;;;;;7.61;70.26;103036.72;5056620;28;19924;-80
2022/01/15 07:09:35;;;;;;;;;;;;;;;8.99;65.21;103023.75;5056960;28;19923;-80
2022/01/15 07:12:00;;;;;;;;;;;;;;;9.24;63.53;103037.13;5057345;28;19917;-80
2022/01/15 07:14:25;;;;;;;;;;;;;;;7.81;69.42;103047.47;5074736;28;19923;-80
2022/01/15 07:16:50;;;;;;;;;;;;;;;8.43;67.40;103039.28;5056607;28;19916;-79
2022/01/15 07:19:16;;;;;;;;;;;;;;;8.48;67.47;103039.28;5056942;28;19920;-79
2022/01/15 07:21:41;;;;;;;;;;;;;;;8.34;68.76;103044.72;5076683;28;19981;-79
2022/01/15 07:24:06;;;;;;;;;;;;;;;8.86;67.23;103028.34;5075848;28;19942;-80
2022/01/15 07:26:31;;;;;;;;;;;;;;;9.22;63.38;103029.03;5058698;28;20232;-82
2022/01/15 07:28:58;;;;;;;;;;;;;;;8.72;64.62;103032.91;5059605;28;19921;-82
2022/01/15 07:31:23;;;;;;;;;;;;;;;8.71;65.42;103028.44;5078103;28;20367;-82
2022/01/15 07:33:48;;;;;;;;;;;;;;;9.60;61.91;103023.31;5059609;28;19917;-80
2022/01/15 07:36:15;;;;;;;;;;;;;;;9.80;61.99;103020.44;5077858;28;19916;-81
2022/01/15 07:38:40;;;;;;;;;;;;;;;8.92;63.18;103030.09;5059656;28;20428;-80
2022/01/15 07:41:06;;;;;;;;;;;;;;;8.96;63.30;103026.47;5059365;28;19916;-81
2022/01/15 07:43:31;;;;;;;;;;;;;;;9.29;62.10;103027.16;5059165;28;19974;-81
2022/01/15 07:45:57;;;;;;;;;;;;;;;9.14;63.13;103022.78;5058165;28;19924;-83
2022/01/15 07:48:22;;;;;;;;;;;;;;;9.17;62.68;103016.47;5057991;28;19920;-82
2022/01/15 07:50:47;;;;;;;;;;;;;;;8.52;67.15;103024.91;5059036;28;19962;-83
2022/01/15 07:53:13;;;;;;;;;;;;;;;8.95;65.81;103023.78;5077106;28;20258;-82
2022/01/15 07:55:38;;;;;;;;;;;;;;;9.34;63.79;103019.03;5058811;28;20446;-82
2022/01/15 07:58:04;;;;;;;;;;;;;;;8.25;67.52;103024.06;5058658;28;19917;-82
2022/01/15 08:00:29;;;;;;;;;;;;;;;9.61;63.09;103017.91;5078198;28;19924;-82
2022/01/15 08:02:55;;;;;;;;;;;;;;;8.54;66.86;103023.09;5059306;28;19916;-83
2022/01/15 08:05:20;;;;;;;;;;;;;;;9.24;62.97;103020.91;5060008;28;19948;-82
2022/01/15 08:07:45;;;;;;;;;;;;;;;9.38;64.50;103012.72;5060578;28;19940;-82
2022/01/15 08:10:10;;;;;;;;;;;;;;;8.93;64.82;103013.00;5078186;28;19917;-81
2022/01/15 08:12:43;;;;;;;;;;;;;;;9.16;64.23;103004.78;5059756;28;19901;-81
2022/01/15 08:15:08;;;;;;;;;;;;;;;8.64;66.51;103000.56;5057999;28;19916;-81
2022/01/15 08:17:34;;;;;;;;;;;;;;;8.76;65.14;103001.41;5075864;28;19938;-81
2022/01/15 08:19:59;;;;;;;;;;;;;;;8.52;66.69;103012.31;5057393;28;20388;-82
2022/01/15 08:22:24;;;;;;;;;;;;;;;8.80;66.98;103004.09;5058347;28;19916;-81
2022/01/15 08:24:50;;;;;;;;;;;;;;;8.51;66.80;102999.75;5057879;28;19928;-83
2022/01/15 08:27:15;;;;;;;;;;;;;;;8.74;65.97;102998.72;5058125;28;20038;-83
2022/01/15 08:29:40;;;;;;;;;;;;;;;8.35;68.71;102997.97;5057457;28;19948;-83
2022/01/15 08:32:06;;;;;;;;;;;;;;;8.51;68.18;102991.63;5057365;28;19920;-81
2022/01/15 08:34:31;;;;;;;;;;;;;;;7.93;69.29;103002.56;5074703;28;20366;-81
2022/01/15 08:36:56;;;;;;;;;;;;;;;8.72;66.22;102992.41;5057672;28;19921;-82
2022/01/15 08:39:22;;;;;;;;;;;;;;;8.22;68.04;102991.69;5057653;28;19923;-81
2022/01/15 08:41:48;;;;;;;;;;;;;;;8.84;66.02;102986.06;5057695;28;20010;-81
2022/01/15 08:44:20;;;;;;;;;;;;;;;8.99;65.19;102990.47;5057422;28;19920;-81
2022/01/15 08:46:45;;;;;;;;;;;;;;;8.68;66.20;102990.63;5057197;28;19913;-81
2022/01/15 08:49:11;;;;;;;;;;;;;;;10.05;61.08;102984.13;5057452;28;19986;-82
2022/01/15 08:51:36;;;;;;;;;;;;;;;9.44;63.63;102982.94;5056002;28;20305;-81
2022/01/15 08:54:01;;;;;;;;;;;;;;;8.56;66.88;102982.59;5057263;28;19921;-81
2022/01/15 08:56:26;;;;;;;;;;;;;;;8.60;67.70;102992.50;5075964;28;19924;-81
2022/01/15 08:58:52;;;;;;;;;;;;;;;9.14;65.66;102976.88;5057847;28;19969;-82
2022/01/15 09:01:17;;;;;;;;;;;;;;;9.70;64.06;102974.59;5058526;28;20360;-82
2022/01/15 09:03:42;;;;;;;;;;;;;;;9.02;65.33;102979.66;5058558;28;19912;-81
2022/01/15 09:06:08;;;;;;;;;;;;;;;9.55;62.89;102972.91;5057428;28;20524;-82
2022/01/15 09:08:34;;;;;;;;;;;;;;;9.22;64.89;102977.72;5056228;28;19923;-83
2022/01/15 09:10:59;;;;;;;;;;;;;;;8.55;69.39;102999.72;5058425;28;20358;-83
2022/01/15 09:13:24;;;;;;;;;;;;;;;9.41;65.77;102985.66;5057363;28;19916;-82
2022/01/15 09:15:50;;;;;;;;;;;;;;;8.93;65.54;102999.50;5076147;28;20286;-83
2022/01/15 09:18:16;;;;;;;;;;;;;;;8.66;67.33;102990.66;5057742;28;19927;-83
2022/01/15 09:20:41;;;;;;;;;;;;;;;8.67;68.25;102988.88;5058116;28;19917;-83
2022/01/15 09:23:06;;;;;;;;;;;;;;;10.13;63.71;102978.66;5058334;28;19928;-84
2022/01/15 09:25:31;;;;;;;;;;;;;;;8.21;69.04;102989.00;5076006;28;19920;-82
2022/01/15 09:30:41;;;;;;;;;;;;;;;8.93;67.47;102983.31;5076154;28;20019;-81
2022/01/15 09:33:06;;;;;;;;;;;;;;;8.62;68.49;102975.41;5058446;28;19959;-81
2022/01/15 09:35:32;;;;;;;;;;;;;;;8.23;70.12;102984.50;5075953;28;19923;-83
2022/01/15 09:37:58;;;;;;;;;;;;;;;8.67;71.69;102975.38;5058260;28;20416;-83
2022/01/15 09:40:25;;;;;;;;;;;;;;;8.51;71.07;102986.25;5057799;28;19916;-82
2022/01/15 09:42:50;;;;;;;;;;;;;;;8.96;67.70;102994.09;5076323;28;20281;-82
2022/01/15 09:45:17;;;;;;;;;;;;;;;8.06;70.56;102995.34;5074945;28;19920;-83
2022/01/15 09:47:43;;;;;;;;;;;;;;;8.24;71.93;102981.78;5075204;28;20293;-83
2022/01/15 09:50:11;;;;;;;;;;;;;;;9.29;67.44;102983.06;5075945;28;20361;-82
2022/01/15 09:52:36;;;;;;;;;;;;;;;9.08;68.81;102982.31;5057796;28;19924;-84
2022/01/15 09:55:04;;;;;;;;;;;;;;;9.25;66.88;102984.00;5058436;28;19917;-82
2022/01/15 09:57:29;;;;;;;;;;;;;;;8.54;68.72;102993.41;5058443;28;20313;-83
2022/01/15 09:59:54;;;;;;;;;;;;;;;9.88;65.68;102978.91;5057393;28;20013;-83
2022/01/15 10:02:20;;;;;;;;;;;;;;;10.03;64.36;102977.84;5056089;28;20354;-82
2022/01/15 10:04:45;;;;;;;;;;;;;;;10.77;60.41;102976.94;5056995;28;19916;-82
2022/01/15 10:07:16;;;;;;;;;;;;;;;10.48;61.75;102976.44;5074874;28;19917;-82
2022/01/15 10:09:42;;;;;;;;;;;;;;;9.64;63.67;102976.47;5075267;28;19917;-82
2022/01/15 10:12:07;;;;;;;;;;;;;;;9.25;66.09;102978.59;5056991;28;19920;-83
2022/01/15 10:14:34;;;;;;;;;;;;;;;8.77;68.27;102979.81;5074534;28;19923;-82
2022/01/15 10:17:00;;;;;;;;;;;;;;;8.45;73.58;102972.75;5056755;28;20436;-81
2022/01/15 10:19:25;;;;;;;;;;;;;;;10.14;64.61;102961.50;5056560;28;19916;-82
2022/01/15 10:22:07;;;;;;;;;;;;;;;8.96;67.09;102974.31;5077713;28;19923;-81
2022/01/15 10:24:32;;;;;;;;;;;;;;;8.54;70.09;102968.25;5059657;28;20019;-81
2022/01/15 10:27:16;;;;;;;;;;;;;;;8.73;69.52;102966.34;5060753;28;19960;-81
2022/01/15 10:29:42;;;;;;;;;;;;;;;9.82;65.23;102962.75;5059848;28;20011;-81
2022/01/15 10:32:12;;;;;;;;;;;;;;;10.25;61.41;102962.28;5060390;28;19917;-81
2022/01/15 10:34:38;;;;;;;;;;;;;;;9.63;64.33;102966.56;5077926;28;19966;-82
2022/01/15 10:37:14;;;;;;;;;;;;;;;8.64;69.14;102972.69;5060046;28;20313;-82
2022/01/15 10:39:52;;;;;;;;;;;;;;;9.34;64.95;102967.72;5077407;28;20297;-81
2022/01/15 10:42:22;;;;;;;;;;;;;;;8.42;68.40;102971.84;5059360;28;19973;-82
2022/01/15 10:44:47;;;;;;;;;;;;;;;8.34;70.03;102961.09;5077401;28;20378;-82
2022/01/15 10:47:15;;;;;;;;;;;;;;;8.72;66.27;102961.84;5077852;28;19917;-82
2022/01/15 10:49:41;;;;;;;;;;;;;;;8.43;68.55;102962.88;5059756;28;19916;-81
2022/01/15 10:52:07;;;;;;;;;;;;;;;9.01;67.53;102953.56;5058956;28;19916;-82
2022/01/15 10:54:34;;;;;;;;;;;;;;;9.42;65.52;102949.66;5059375;28;20013;-83
2022/01/15 10:57:09;;;;;;;;;;;;;;;8.47;66.42;102965.56;5059386;28;20382;-81
2022/01/15 10:59:34;;;;;;;;;;;;;;;8.92;65.10;102961.72;5059545;28;20046;-80
2022/01/15 11:02:18;;;;;;;;;;;;;;;8.65;67.61;102959.19;5060312;28;19967;-82
2022/01/15 11:04:43;;;;;;;;;;;;;;;9.00;65.41;102951.78;5059743;28;19920;-80
2022/01/15 11:07:12;;;;;;;;;;;;;;;8.68;66.04;102963.66;5077807;28;19947;-82
2022/01/15 11:09:37;;;;;;;;;;;;;;;8.64;66.14;102957.38;5059786;28;20001;-82
2022/01/15 11:12:04;;;;;;;;;;;;;;;8.16;69.77;102952.16;5078443;28;20366;-82
2022/01/15 11:14:30;;;;;;;;;;;;;;;8.79;66.63;102948.31;5076979;28;19943;-80
2022/01/15 11:16:56;;;;;;;;;;;;;;;9.14;65.61;102940.88;5059588;28;19916;-81
2022/01/15 11:19:23;;;;;;;;;;;;;;;8.73;65.66;102942.06;5079184;28;19951;-81
2022/01/15 11:21:49;;;;;;;;;;;;;;;9.50;64.35;102933.38;5079592;28;20011;-81
2022/01/15 11:24:15;;;;;;;;;;;;;;;9.13;64.27;102933.66;5060159;28;20400;-81
2022/01/15 11:26:40;;;;;;;;;;;;;;;10.31;60.40;102931.56;5078309;28;19916;-81
2022/01/15 11:29:06;;;;;;;;;;;;;;;9.57;61.70;102927.88;5059936;28;19916;-80
2022/01/15 11:31:32;;;;;;;;;;;;;;;9.56;61.41;102922.50;5075579;28;19916;-82
2022/01/15 11:33:59;;;;;;;;;;;;;;;9.62;62.50;102921.50;5058613;28;19920;-85
2022/01/15 11:36:33;;;;;;;;;;;;;;;10.25;60.10;102927.09;5058977;28;20385;-81
2022/01/15 11:39:01;;;;;;;;;;;;;;;9.56;62.89;102912.56;5058610;28;19917;-81
2022/01/15 11:41:26;;;;;;;;;;;;;;;9.63;63.24;102918.81;5059015;28;19955;-81
2022/01/15 11:43:51;;;;;;;;;;;;;;;9.37;62.18;102916.34;5058376;28;19928;-80
2022/01/15 11:46:24;;;;;;;;;;;;;;;9.43;61.73;102900.09;5058677;28;19931;-82
2022/01/15 11:48:50;;;;;;;;;;;;;;;9.83;60.10;102905.09;5058536;28;20365;-80
2022/01/15 11:51:17;;;;;;;;;;;;;;;10.40;58.44;102895.38;5058332;28;19938;-82
2022/01/15 11:53:54;;;;;;;;;;;;;;;9.57;60.67;102897.25;5057713;28;19925;-81
2022/01/15 11:56:21;;;;;;;;;;;;;;;9.73;60.04;102893.47;5057791;28;19916;-82
2022/01/15 11:58:46;;;;;;;;;;;;;;;9.84;59.78;102890.63;5058282;28;19916;-82
2022/01/15 12:01:30;;;;;;;;;;;;;;;9.42;62.26;102895.63;5057637;28;19916;-83
2022/01/15 12:04:18;;;;;;;;;;;;;;;8.77;64.40;102879.03;5075854;28;19917;-83
2022/01/15 12:07:02;;;;;;;;;;;;;;;8.79;63.39;102874.56;5047518;28;19970;-82
2022/01/15 12:09:55;;;;;;;;;;;;;;;9.68;61.46;102857.50;5057258;28;19948;-83
2022/01/15 12:12:33;;;;;;;;;;;;;;;9.23;62.54;102863.34;5055317;28;20379;-82
2022/01/15 12:15:00;;;;;;;;;;;;;;;8.94;61.85;102862.75;5058374;28;19916;-81
2022/01/15 12:17:27;;;;;;;;;;;;;;;9.96;59.69;102861.66;5057602;28;19967;-82
2022/01/15 12:19:53;;;;;;;;;;;;;;;9.93;59.40;102858.09;5058450;28;20392;-82
2022/01/15 12:22:36;;;;;;;;;;;;;;;9.80;58.95;102861.88;5077641;28;19916;-81
2022/01/15 12:25:10;;;;;;;;;;;;;;;10.18;57.69;102855.06;5077554;28;19927;-83
2022/01/15 12:27:36;;;;;;;;;;;;;;;9.97;57.95;102858.06;5078091;28;19923;-83
2022/01/15 12:30:02;;;;;;;;;;;;;;;9.57;59.19;102848.59;5060117;28;20007;-84
2022/01/15 12:32:32;;;;;;;;;;;;;;;9.16;59.68;102845.44;5060869;28;19928;-86
2022/01/15 12:34:58;;;;;;;;;;;;;;;9.46;59.52;102834.31;5061538;28;19920;-85
2022/01/15 12:37:24;;;;;;;;;;;;;;;9.39;59.75;102830.78;5060484;28;19900;-82
2022/01/15 12:39:49;;;;;;;;;;;;;;;9.68;59.21;102826.88;5059614;28;20366;-82
2022/01/15 12:42:17;;;;;;;;;;;;;;;9.18;60.63;102835.50;5057280;28;19924;-82
2022/01/15 12:44:51;;;;;;;;;;;;;;;9.53;60.26;102828.84;5077281;28;19921;-83
2022/01/15 12:47:17;;;;;;;;;;;;;;;9.65;58.55;102827.81;5060080;28;20061;-84
2022/01/15 12:49:46;;;;;;;;;;;;;;;9.50;58.97;102834.28;5059697;28;20001;-83
2022/01/15 12:52:25;;;;;;;;;;;;;;;10.13;58.14;102823.56;5059525;28;19943;-82
2022/01/15 12:54:52;;;;;;;;;;;;;;;8.92;60.08;102832.16;5059540;28;20007;-81
2022/01/15 12:57:36;;;;;;;;;;;;;;;9.36;59.09;102830.81;5043616;28;19920;-82
2022/01/15 13:00:03;;;;;;;;;;;;;;;10.29;56.26;102820.63;5076280;28;20286;-82
2022/01/15 13:02:29;;;;;;;;;;;;;;;10.08;56.54;102818.25;5058409;28;19978;-81
2022/01/15 13:04:54;;;;;;;;;;;;;;;9.55;57.94;102826.13;5065609;28;20315;-82